Benson Mines, New York
Current Conditions -  °F | °C
As of 3:58 PM on Friday 28 Nov 2014 (Local Time) from KGTB Reporting Station
Scattered Clouds Scattered Clouds  
Wind Chill: 16°   Ceiling: Unl
Heat Index: 23°   Visibility: 10mi
Dew Point: 13°   Wind: 6mph
Humidity: 66%   Direction: 280°W
Pressure: 30.15"   Gusts: NA
Location:  44.1538°N, 74.996°W
Report Text: KGTB 282058Z AUTO 28005KT 10SM SCT026 SCT036 M05/M11 A3015 RMK AO2 SLP222 60000 T10511106 53008
Loading
Personal Weather Stations






























Interactive Weather Map New forecast layout! Learn more

10-Day Weather Forecast

Advertisements
Track Severe Weather on mobile